Time;durP1;ratioP1;P1;durP2;ratioP2;P2;SDS_P1;SDS_P2;PMS_P1;PMS_P2;Temp;Humidity;BMP_temperature;BMP_pressure;BME280_temperature;BME280_humidity;BME280_pressure;Samples;Min_cycle;Max_cycle;Signal;HPM_P1;HPM_P2
2023/05/26 00:00:48;;;;;;;;;;;13.40;98.50;;;;;;5027669;28;19949;-78
2023/05/26 00:03:14;;;;;;;;;;;13.40;98.50;;;;;;5023301;28;20015;-78
2023/05/26 00:05:40;;;;;;;;;;;13.30;98.50;;;;;;5027948;28;19967;-77
2023/05/26 00:08:06;;;;;;;;;;;13.20;98.50;;;;;;5029270;28;19912;-76
2023/05/26 00:10:32;;;;;;;;;;;13.40;98.50;;;;;;5028805;28;19917;-76
2023/05/26 00:12:57;;;;;;;;;;;13.50;98.50;;;;;;5028240;28;20328;-76
2023/05/26 00:15:23;;;;;;;;;;;13.50;98.50;;;;;;5028115;28;19924;-77
2023/05/26 00:17:50;;;;;;;;;;;13.60;98.50;;;;;;5026136;28;19917;-77
2023/05/26 00:20:16;;;;;;;;;;;13.60;98.50;;;;;;5028562;28;19916;-77
2023/05/26 00:22:41;;;;;;;;;;;13.60;98.50;;;;;;5028876;28;19913;-77
2023/05/26 00:25:07;;;;;;;;;;;13.70;98.50;;;;;;5030139;28;19905;-77
2023/05/26 00:27:33;;;;;;;;;;;13.70;98.50;;;;;;5029744;28;19909;-77
2023/05/26 00:29:58;;;;;;;;;;;13.80;98.50;;;;;;5029933;28;19919;-77
2023/05/26 00:32:24;;;;;;;;;;;13.80;98.50;;;;;;5027809;28;19979;-77
2023/05/26 00:34:50;;;;;;;;;;;13.80;98.50;;;;;;5033815;28;20406;-77
2023/05/26 00:37:15;;;;;;;;;;;13.80;98.50;;;;;;5033167;28;20000;-77
2023/05/26 00:39:41;;;;;;;;;;;13.80;98.50;;;;;;5041019;28;19909;-77
2023/05/26 00:42:06;;;;;;;;;;;13.80;98.50;;;;;;5034592;28;19916;-77
2023/05/26 00:44:32;;;;;;;;;;;13.80;98.50;;;;;;5031770;28;20375;-77
2023/05/26 00:46:57;;;;;;;;;;;13.80;98.50;;;;;;5032467;28;20012;-77
2023/05/26 00:49:23;;;;;;;;;;;13.80;98.50;;;;;;5034811;28;20329;-76
2023/05/26 00:51:48;;;;;;;;;;;13.80;98.50;;;;;;5032520;28;19921;-78
2023/05/26 00:54:14;;;;;;;;;;;13.80;98.30;;;;;;5024003;28;19916;-77
2023/05/26 00:56:41;;;;;;;;;;;13.80;98.20;;;;;;5032254;28;19917;-77
2023/05/26 00:59:08;;;;;;;;;;;13.80;98.30;;;;;;5040779;28;19919;-77
2023/05/26 01:01:34;;;;;;;;;;;13.80;98.10;;;;;;5034915;28;20362;-77
2023/05/26 01:03:59;;;;;;;;;;;13.80;98.20;;;;;;5035522;28;19913;-77
2023/05/26 01:06:25;;;;;;;;;;;13.80;98.30;;;;;;5028579;28;19913;-78
2023/05/26 01:08:51;;;;;;;;;;;13.70;98.20;;;;;;5034638;28;19916;-77
2023/05/26 01:11:46;;;;;;;;;;;13.70;98.20;;;;;;5032250;28;19924;-77
2023/05/26 01:14:11;;;;;;;;;;;13.70;98.30;;;;;;5034218;28;19908;-77
2023/05/26 01:16:42;;;;;;;;;;;13.60;98.30;;;;;;5062621;28;20446;-77
2023/05/26 01:19:16;;;;;;;;;;;13.70;98.50;;;;;;5031570;28;19909;-76
2023/05/26 01:21:43;;;;;;;;;;;13.60;98.20;;;;;;5022854;28;20504;-76
2023/05/26 01:24:18;;;;;;;;;;;13.60;98.50;;;;;;5026746;28;20005;-77
2023/05/26 01:26:43;;;;;;;;;;;13.60;98.50;;;;;;5033378;28;19948;-76
2023/05/26 01:29:14;;;;;;;;;;;13.50;98.50;;;;;;5032388;28;20449;-77
2023/05/26 01:31:39;;;;;;;;;;;13.50;98.50;;;;;;5030560;28;20519;-77
2023/05/26 01:34:05;;;;;;;;;;;13.50;98.30;;;;;;5030861;28;19913;-77
2023/05/26 01:36:31;;;;;;;;;;;13.50;98.50;;;;;;5036665;28;19909;-77
2023/05/26 01:38:56;;;;;;;;;;;13.50;98.50;;;;;;5030296;28;19913;-77
2023/05/26 01:41:22;;;;;;;;;;;13.50;98.50;;;;;;5030718;28;19933;-77
2023/05/26 01:43:53;;;;;;;;;;;13.50;98.50;;;;;;5044292;28;19928;-76
2023/05/26 01:46:26;;;;;;;;;;;13.50;98.50;;;;;;5033398;28;19992;-76
2023/05/26 01:48:54;;;;;;;;;;;13.50;98.50;;;;;;5028340;28;19909;-77
2023/05/26 01:51:20;;;;;;;;;;;13.40;98.50;;;;;;5025974;28;20405;-76
2023/05/26 01:53:47;;;;;;;;;;;13.40;98.30;;;;;;5030903;28;19912;-77
2023/05/26 01:56:13;;;;;;;;;;;13.40;98.50;;;;;;5031252;28;20382;-77
2023/05/26 01:58:39;;;;;;;;;;;13.40;98.50;;;;;;5027531;28;20008;-77
2023/05/26 02:01:05;;;;;;;;;;;13.30;98.50;;;;;;5031769;28;19909;-76
2023/05/26 02:03:31;;;;;;;;;;;13.30;98.40;;;;;;5027862;28;19905;-77
2023/05/26 02:05:56;;;;;;;;;;;13.30;98.50;;;;;;5029304;28;19912;-79
2023/05/26 02:08:22;;;;;;;;;;;13.30;98.50;;;;;;5030211;28;20609;-78
2023/05/26 02:10:47;;;;;;;;;;;13.20;98.50;;;;;;5031957;28;20374;-78
2023/05/26 02:13:13;;;;;;;;;;;13.30;98.50;;;;;;5030364;28;19905;-78
2023/05/26 02:15:39;;;;;;;;;;;13.30;98.50;;;;;;5030283;28;19920;-78
2023/05/26 02:18:04;;;;;;;;;;;13.30;98.50;;;;;;5029483;28;21191;-76
2023/05/26 02:20:30;;;;;;;;;;;13.30;98.50;;;;;;5051980;28;19914;-77
2023/05/26 02:22:55;;;;;;;;;;;13.30;98.50;;;;;;5031469;28;19913;-77
2023/05/26 02:25:21;;;;;;;;;;;13.30;98.50;;;;;;5031442;28;19909;-77
2023/05/26 02:27:46;;;;;;;;;;;13.30;98.50;;;;;;5028196;28;19909;-77
2023/05/26 02:30:12;;;;;;;;;;;13.30;98.50;;;;;;5030020;28;19921;-77
2023/05/26 02:32:38;;;;;;;;;;;13.30;98.50;;;;;;5028914;28;20393;-77
2023/05/26 02:35:04;;;;;;;;;;;13.30;98.50;;;;;;5025485;28;19909;-77
2023/05/26 02:37:29;;;;;;;;;;;13.20;98.50;;;;;;5029771;28;19921;-76
2023/05/26 02:39:56;;;;;;;;;;;13.20;98.50;;;;;;5024301;28;20016;-77
2023/05/26 02:42:21;;;;;;;;;;;13.20;98.50;;;;;;5030588;28;19920;-76
2023/05/26 02:44:47;;;;;;;;;;;13.20;98.50;;;;;;5029766;28;19909;-76
2023/05/26 02:47:12;;;;;;;;;;;13.20;98.50;;;;;;5031281;28;19905;-77
2023/05/26 02:49:38;;;;;;;;;;;13.20;98.50;;;;;;5031157;28;19975;-77
2023/05/26 02:52:03;;;;;;;;;;;13.20;98.50;;;;;;5028539;28;19908;-77
2023/05/26 02:54:29;;;;;;;;;;;13.20;98.50;;;;;;5031029;28;19917;-77
2023/05/26 02:56:55;;;;;;;;;;;13.20;98.50;;;;;;5018347;28;20006;-77
2023/05/26 02:59:20;;;;;;;;;;;13.20;98.50;;;;;;5032103;28;20436;-77
2023/05/26 03:01:46;;;;;;;;;;;13.20;98.50;;;;;;5029334;28;19916;-77
2023/05/26 03:04:11;;;;;;;;;;;13.20;98.50;;;;;;5030130;28;19912;-77
2023/05/26 03:06:37;;;;;;;;;;;13.30;98.50;;;;;;5028229;28;19909;-78
2023/05/26 03:09:03;;;;;;;;;;;13.30;98.50;;;;;;5029381;28;19909;-78
2023/05/26 03:11:29;;;;;;;;;;;13.30;98.50;;;;;;5026706;28;19943;-78
2023/05/26 03:13:54;;;;;;;;;;;13.30;98.50;;;;;;5030595;28;20375;-78
2023/05/26 03:16:20;;;;;;;;;;;13.30;98.50;;;;;;5026157;28;19908;-78
2023/05/26 03:18:46;;;;;;;;;;;13.30;98.50;;;;;;5030719;28;19956;-78
2023/05/26 03:21:11;;;;;;;;;;;13.30;98.50;;;;;;5027927;28;20050;-78
2023/05/26 03:23:36;;;;;;;;;;;13.30;98.50;;;;;;5031747;28;19905;-78
2023/05/26 03:26:02;;;;;;;;;;;13.30;98.50;;;;;;5028929;28;20595;-78
2023/05/26 03:28:28;;;;;;;;;;;13.30;98.50;;;;;;5024923;28;19909;-78
2023/05/26 03:30:53;;;;;;;;;;;13.30;98.50;;;;;;5021547;28;19917;-78
2023/05/26 03:33:19;;;;;;;;;;;13.30;98.50;;;;;;5029390;28;19919;-77
2023/05/26 03:35:44;;;;;;;;;;;13.30;98.50;;;;;;5029403;28;19948;-78
2023/05/26 03:38:10;;;;;;;;;;;13.30;98.50;;;;;;5030897;28;20016;-77
2023/05/26 03:40:36;;;;;;;;;;;13.30;98.50;;;;;;5020613;28;20996;-77
2023/05/26 03:43:01;;;;;;;;;;;13.30;98.50;;;;;;5029745;28;19909;-79
2023/05/26 03:45:27;;;;;;;;;;;13.30;98.50;;;;;;5029844;28;19917;-77
2023/05/26 03:47:53;;;;;;;;;;;13.30;98.50;;;;;;5029693;28;20379;-78
2023/05/26 03:50:18;;;;;;;;;;;13.30;98.50;;;;;;5021188;28;19964;-78
2023/05/26 03:52:44;;;;;;;;;;;13.30;98.50;;;;;;5022341;28;20382;-76
2023/05/26 03:55:10;;;;;;;;;;;13.30;98.50;;;;;;5030486;28;19970;-79
2023/05/26 03:57:39;;;;;;;;;;;13.30;98.50;;;;;;5028871;28;20007;-78
2023/05/26 04:00:07;;;;;;;;;;;13.30;98.50;;;;;;5029968;28;19956;-78
2023/05/26 04:02:33;;;;;;;;;;;13.30;98.50;;;;;;5028978;28;19909;-78
2023/05/26 04:04:58;;;;;;;;;;;13.30;98.50;;;;;;5028679;28;20649;-79
2023/05/26 04:07:24;;;;;;;;;;;13.30;98.50;;;;;;5030170;28;20401;-78
2023/05/26 04:09:49;;;;;;;;;;;13.20;98.50;;;;;;5028765;28;19905;-78
2023/05/26 04:12:15;;;;;;;;;;;13.30;98.50;;;;;;5028000;28;19905;-78
2023/05/26 04:14:40;;;;;;;;;;;13.30;98.50;;;;;;5030641;28;21107;-78
2023/05/26 04:17:06;;;;;;;;;;;13.30;98.50;;;;;;5022439;28;19909;-78
2023/05/26 04:19:31;;;;;;;;;;;13.20;98.50;;;;;;5036004;28;19920;-77
2023/05/26 04:21:57;;;;;;;;;;;13.10;98.50;;;;;;5026463;28;20355;-78
2023/05/26 04:24:23;;;;;;;;;;;13.20;98.50;;;;;;5027006;28;19994;-78
2023/05/26 04:26:52;;;;;;;;;;;13.20;98.50;;;;;;5025406;28;20367;-77
2023/05/26 04:29:18;;;;;;;;;;;13.20;98.50;;;;;;5028806;28;19975;-78
2023/05/26 04:31:44;;;;;;;;;;;13.20;98.50;;;;;;5029289;28;19917;-78
2023/05/26 04:34:10;;;;;;;;;;;13.20;98.50;;;;;;5030541;28;19913;-79
2023/05/26 04:36:39;;;;;;;;;;;13.20;98.50;;;;;;5028361;28;19928;-79
2023/05/26 04:39:07;;;;;;;;;;;13.30;98.50;;;;;;5023729;28;20370;-78
2023/05/26 04:41:33;;;;;;;;;;;13.40;98.50;;;;;;5026232;28;19909;-78
2023/05/26 04:43:59;;;;;;;;;;;13.50;98.50;;;;;;5026150;28;20003;-79
2023/05/26 04:46:25;;;;;;;;;;;13.50;98.50;;;;;;5024250;28;19913;-79
2023/05/26 04:48:52;;;;;;;;;;;13.60;98.50;;;;;;5027385;28;19909;-79
2023/05/26 04:51:18;;;;;;;;;;;13.70;98.50;;;;;;5030530;28;19974;-78
2023/05/26 04:53:43;;;;;;;;;;;13.80;98.50;;;;;;5029621;28;19913;-79
2023/05/26 04:56:09;;;;;;;;;;;13.80;98.50;;;;;;5032515;28;20444;-78
2023/05/26 04:58:37;;;;;;;;;;;13.90;98.50;;;;;;5026135;28;19909;-78
2023/05/26 05:01:03;;;;;;;;;;;13.90;98.50;;;;;;5032838;28;20377;-78
2023/05/26 05:03:29;;;;;;;;;;;14.00;98.50;;;;;;5033668;28;19909;-78
2023/05/26 05:05:54;;;;;;;;;;;14.00;98.50;;;;;;5027396;28;19939;-78
2023/05/26 05:08:20;;;;;;;;;;;14.10;98.50;;;;;;5029150;28;19905;-78
2023/05/26 05:10:45;;;;;;;;;;;14.10;98.50;;;;;;5031052;28;19947;-80
2023/05/26 05:13:11;;;;;;;;;;;14.10;98.50;;;;;;5059334;28;20352;-80
2023/05/26 05:15:36;;;;;;;;;;;14.20;98.50;;;;;;5027250;28;19927;-82
2023/05/26 05:18:02;;;;;;;;;;;14.10;98.50;;;;;;5029285;28;19905;-81
2023/05/26 05:20:28;;;;;;;;;;;14.20;98.50;;;;;;5037120;28;19908;-82
2023/05/26 05:22:54;;;;;;;;;;;14.30;98.50;;;;;;5031846;28;20008;-81
2023/05/26 05:25:20;;;;;;;;;;;14.30;98.50;;;;;;5032850;28;19923;-80
2023/05/26 05:27:46;;;;;;;;;;;14.30;98.50;;;;;;5032537;28;19987;-81
2023/05/26 05:30:11;;;;;;;;;;;14.40;98.50;;;;;;5032961;28;20289;-80
2023/05/26 05:32:37;;;;;;;;;;;14.50;98.50;;;;;;5037415;28;19913;-80
2023/05/26 05:35:03;;;;;;;;;;;14.50;98.50;;;;;;5031582;28;19909;-81
2023/05/26 05:37:29;;;;;;;;;;;14.60;98.50;;;;;;5033060;28;20446;-77
2023/05/26 05:39:54;;;;;;;;;;;14.60;98.50;;;;;;5032971;28;20468;-80
2023/05/26 05:42:20;;;;;;;;;;;14.60;98.50;;;;;;5029891;28;19917;-77
2023/05/26 05:44:46;;;;;;;;;;;14.70;98.50;;;;;;5031949;28;19915;-77
2023/05/26 05:47:11;;;;;;;;;;;14.80;98.50;;;;;;5026805;28;19966;-76
2023/05/26 05:49:37;;;;;;;;;;;14.80;98.50;;;;;;5032048;28;19999;-77
2023/05/26 05:52:02;;;;;;;;;;;14.80;98.50;;;;;;5032014;28;21220;-77
2023/05/26 05:54:28;;;;;;;;;;;14.90;98.50;;;;;;5031923;28;19909;-77
2023/05/26 05:56:53;;;;;;;;;;;14.80;98.50;;;;;;5030720;28;20433;-77
2023/05/26 05:59:19;;;;;;;;;;;14.90;98.50;;;;;;5032293;28;19995;-76
2023/05/26 06:01:44;;;;;;;;;;;15.00;98.50;;;;;;5033431;28;20361;-76
2023/05/26 06:04:10;;;;;;;;;;;15.10;98.50;;;;;;5036073;28;19996;-77
2023/05/26 06:06:35;;;;;;;;;;;15.10;98.50;;;;;;5033754;28;20280;-78
2023/05/26 06:09:01;;;;;;;;;;;15.20;98.50;;;;;;5030474;28;19912;-77
2023/05/26 06:11:27;;;;;;;;;;;15.30;98.50;;;;;;5035036;28;19917;-77
2023/05/26 06:13:52;;;;;;;;;;;15.40;98.50;;;;;;5030245;28;20367;-77
2023/05/26 06:16:18;;;;;;;;;;;15.50;98.40;;;;;;5031897;28;19913;-76
2023/05/26 06:18:43;;;;;;;;;;;15.50;98.00;;;;;;5031203;28;19912;-77
2023/05/26 06:21:09;;;;;;;;;;;15.60;98.40;;;;;;5030820;28;20011;-76
2023/05/26 06:23:34;;;;;;;;;;;15.70;98.00;;;;;;5030584;28;20010;-76
2023/05/26 06:26:00;;;;;;;;;;;15.70;97.30;;;;;;5031011;28;20425;-76
2023/05/26 06:28:25;;;;;;;;;;;15.80;97.10;;;;;;5030300;28;19916;-77
2023/05/26 06:30:51;;;;;;;;;;;15.80;97.10;;;;;;5031502;28;19924;-77
2023/05/26 06:33:16;;;;;;;;;;;15.90;96.90;;;;;;5012623;28;20397;-76
2023/05/26 06:35:42;;;;;;;;;;;15.90;95.10;;;;;;5031269;28;19909;-76
2023/05/26 06:38:07;;;;;;;;;;;16.00;95.90;;;;;;5031526;28;19913;-78
2023/05/26 06:40:33;;;;;;;;;;;16.10;95.60;;;;;;5034286;28;19909;-77
2023/05/26 06:42:59;;;;;;;;;;;16.20;96.00;;;;;;5030070;28;19920;-78
2023/05/26 06:45:24;;;;;;;;;;;16.20;95.40;;;;;;5026349;28;20359;-77
2023/05/26 06:47:50;;;;;;;;;;;16.30;93.80;;;;;;5031201;28;20386;-77
2023/05/26 06:50:15;;;;;;;;;;;16.40;94.10;;;;;;5030324;28;19920;-77
2023/05/26 06:52:41;;;;;;;;;;;16.50;95.10;;;;;;5030504;28;19913;-76
2023/05/26 06:55:07;;;;;;;;;;;16.60;95.00;;;;;;5032491;28;19909;-77
2023/05/26 06:57:32;;;;;;;;;;;16.60;93.60;;;;;;5030845;28;19916;-76
2023/05/26 06:59:58;;;;;;;;;;;16.70;94.00;;;;;;5029344;28;20302;-77
2023/05/26 07:02:23;;;;;;;;;;;16.70;92.60;;;;;;5029874;28;19925;-77
2023/05/26 07:04:49;;;;;;;;;;;16.80;93.00;;;;;;5030841;28;20070;-77
2023/05/26 07:07:14;;;;;;;;;;;16.90;93.60;;;;;;5031160;28;20000;-77
2023/05/26 07:09:41;;;;;;;;;;;17.00;93.60;;;;;;5022555;28;20010;-77
2023/05/26 07:12:06;;;;;;;;;;;17.10;93.60;;;;;;5029388;28;19966;-76
2023/05/26 07:14:32;;;;;;;;;;;17.10;92.40;;;;;;5028721;28;20047;-76
2023/05/26 07:16:57;;;;;;;;;;;17.20;92.30;;;;;;5019960;28;19906;-77
2023/05/26 07:19:23;;;;;;;;;;;17.20;91.50;;;;;;5018121;28;20390;-77
2023/05/26 07:21:48;;;;;;;;;;;17.30;91.40;;;;;;5027798;28;19988;-77
2023/05/26 07:24:14;;;;;;;;;;;17.40;92.00;;;;;;5026570;28;19909;-77
2023/05/26 07:26:40;;;;;;;;;;;17.50;92.10;;;;;;5028969;28;20383;-76
2023/05/26 07:29:05;;;;;;;;;;;17.50;91.90;;;;;;5025804;28;19909;-78
2023/05/26 07:31:31;;;;;;;;;;;17.60;91.80;;;;;;5023411;28;20031;-77
2023/05/26 07:33:56;;;;;;;;;;;17.70;89.40;;;;;;5025190;28;19916;-77
2023/05/26 07:36:22;;;;;;;;;;;17.70;90.10;;;;;;5030357;28;19975;-77
2023/05/26 07:38:48;;;;;;;;;;;17.80;89.90;;;;;;5029360;28;19913;-77
2023/05/26 07:41:13;;;;;;;;;;;17.90;90.80;;;;;;5025599;28;19915;-77
2023/05/26 07:43:39;;;;;;;;;;;18.00;90.80;;;;;;5025300;28;19923;-77
2023/05/26 07:46:04;;;;;;;;;;;18.10;90.10;;;;;;5026493;28;19919;-77
2023/05/26 07:48:30;;;;;;;;;;;18.20;89.60;;;;;;5026323;28;19947;-75
2023/05/26 07:50:56;;;;;;;;;;;18.20;89.10;;;;;;5024510;28;19917;-77
2023/05/26 07:53:21;;;;;;;;;;;18.30;89.10;;;;;;5031576;28;19916;-78
2023/05/26 07:55:47;;;;;;;;;;;18.50;89.20;;;;;;5026578;28;19908;-77
2023/05/26 07:58:12;;;;;;;;;;;18.60;89.70;;;;;;5026289;28;20000;-77
2023/05/26 08:00:38;;;;;;;;;;;18.70;89.30;;;;;;5026524;28;19916;-77
2023/05/26 08:03:03;;;;;;;;;;;18.80;89.70;;;;;;5027355;28;19909;-77
2023/05/26 08:05:29;;;;;;;;;;;18.90;88.80;;;;;;5027376;28;19935;-77
2023/05/26 08:07:54;;;;;;;;;;;19.00;88.50;;;;;;5027726;28;19983;-77
2023/05/26 08:10:20;;;;;;;;;;;19.10;87.80;;;;;;5023846;28;20426;-77
2023/05/26 08:12:46;;;;;;;;;;;19.20;87.60;;;;;;5026501;28;19959;-76
2023/05/26 08:15:15;;;;;;;;;;;19.40;87.80;;;;;;5022798;28;19905;-78
2023/05/26 08:17:41;;;;;;;;;;;19.50;86.10;;;;;;5023487;28;20004;-78
2023/05/26 08:20:07;;;;;;;;;;;19.60;85.90;;;;;;5024283;28;20004;-78
2023/05/26 08:22:32;;;;;;;;;;;19.70;85.50;;;;;;5024131;28;19904;-77
2023/05/26 08:24:58;;;;;;;;;;;19.90;85.40;;;;;;5024449;28;19959;-76
2023/05/26 08:27:24;;;;;;;;;;;20.00;85.00;;;;;;5028603;28;19935;-78
2023/05/26 08:29:49;;;;;;;;;;;20.10;80.50;;;;;;5026065;28;19924;-77
2023/05/26 08:32:15;;;;;;;;;;;20.20;82.70;;;;;;5026567;28;20007;-78
2023/05/26 08:34:42;;;;;;;;;;;20.20;83.50;;;;;;5028311;28;19988;-78
2023/05/26 08:37:08;;;;;;;;;;;20.30;83.10;;;;;;5035641;28;19913;-78
2023/05/26 08:39:34;;;;;;;;;;;20.40;82.80;;;;;;5030028;28;19917;-79
2023/05/26 08:42:02;;;;;;;;;;;20.50;84.50;;;;;;5034859;28;19943;-79
2023/05/26 08:44:28;;;;;;;;;;;20.60;85.00;;;;;;5028316;28;19909;-79
2023/05/26 08:46:57;;;;;;;;;;;20.60;84.80;;;;;;5028489;28;19920;-78
2023/05/26 08:49:23;;;;;;;;;;;20.70;85.20;;;;;;5027315;28;19928;-75
2023/05/26 08:52:00;;;;;;;;;;;20.90;85.10;;;;;;5029441;28;20294;-76
2023/05/26 08:54:26;;;;;;;;;;;21.00;85.10;;;;;;5030245;28;19916;-76
2023/05/26 08:56:51;;;;;;;;;;;21.20;85.20;;;;;;5033315;28;19944;-78
2023/05/26 08:59:18;;;;;;;;;;;21.30;83.90;;;;;;5030938;28;19986;-76
2023/05/26 09:01:43;;;;;;;;;;;21.40;82.60;;;;;;5031127;28;19913;-78
2023/05/26 09:04:09;;;;;;;;;;;21.60;82.40;;;;;;5028065;28;20295;-77
2023/05/26 09:06:35;;;;;;;;;;;21.70;82.50;;;;;;5030438;28;19948;-77
2023/05/26 09:09:04;;;;;;;;;;;21.90;82.40;;;;;;5028626;28;20377;-77
2023/05/26 09:11:30;;;;;;;;;;;22.00;81.00;;;;;;5030066;28;19921;-78
2023/05/26 09:13:56;;;;;;;;;;;22.10;81.20;;;;;;5033847;28;19909;-79
2023/05/26 09:16:25;;;;;;;;;;;22.10;80.80;;;;;;5032926;28;19931;-77
2023/05/26 09:19:02;;;;;;;;;;;22.20;80.30;;;;;;5032247;28;19905;-75
2023/05/26 09:21:29;;;;;;;;;;;22.30;80.30;;;;;;5029295;28;20505;-74
2023/05/26 09:23:56;;;;;;;;;;;22.40;79.60;;;;;;5028331;28;19921;-74
2023/05/26 09:26:34;;;;;;;;;;;22.50;79.70;;;;;;5025912;28;19917;-75
2023/05/26 09:29:00;;;;;;;;;;;22.60;79.20;;;;;;5030345;28;19913;-75
2023/05/26 09:31:36;;;;;;;;;;;22.70;79.00;;;;;;5029509;28;20438;-76
2023/05/26 09:34:01;;;;;;;;;;;22.90;78.70;;;;;;5026585;28;19913;-75
2023/05/26 09:36:27;;;;;;;;;;;23.10;77.10;;;;;;5029509;28;19911;-76
2023/05/26 09:38:53;;;;;;;;;;;23.30;77.20;;;;;;5031286;28;19909;-77
2023/05/26 09:41:19;;;;;;;;;;;23.60;75.70;;;;;;5031391;28;19983;-76
2023/05/26 09:43:45;;;;;;;;;;;23.90;74.20;;;;;;5032493;28;20302;-76
2023/05/26 09:46:20;;;;;;;;;;;24.10;73.90;;;;;;5032456;28;19909;-77
2023/05/26 09:48:50;;;;;;;;;;;24.40;75.20;;;;;;5032463;28;19985;-76
2023/05/26 09:51:19;;;;;;;;;;;24.70;73.70;;;;;;5032363;28;19913;-76
2023/05/26 09:53:45;;;;;;;;;;;24.90;74.00;;;;;;5028093;28;19905;-76
2023/05/26 09:56:11;;;;;;;;;;;25.00;73.30;;;;;;5032405;28;20294;-76
2023/05/26 09:58:39;;;;;;;;;;;25.20;72.30;;;;;;5031257;28;20355;-76
2023/05/26 10:01:05;;;;;;;;;;;25.30;71.70;;;;;;5032014;28;19937;-76
2023/05/26 10:03:31;;;;;;;;;;;25.40;72.30;;;;;;5031358;28;19909;-76
2023/05/26 10:05:59;;;;;;;;;;;25.40;72.50;;;;;;5032199;28;19905;-76
2023/05/26 10:08:26;;;;;;;;;;;25.40;72.10;;;;;;5028975;28;19905;-76
2023/05/26 10:10:52;;;;;;;;;;;25.40;72.00;;;;;;5027646;28;20353;-75
2023/05/26 10:13:18;;;;;;;;;;;25.40;72.20;;;;;;5031800;28;19909;-76
2023/05/26 10:15:45;;;;;;;;;;;25.30;72.70;;;;;;5030391;28;20298;-76
2023/05/26 10:18:11;;;;;;;;;;;25.20;72.90;;;;;;5031829;28;19912;-76
2023/05/26 10:20:36;;;;;;;;;;;25.00;73.10;;;;;;5031343;28;20310;-76
2023/05/26 10:23:04;;;;;;;;;;;24.90;72.40;;;;;;5031526;28;19988;-76
2023/05/26 10:25:44;;;;;;;;;;;24.80;70.70;;;;;;5031711;28;19909;-75
2023/05/26 10:28:19;;;;;;;;;;;24.70;70.60;;;;;;5024137;28;19909;-75
2023/05/26 10:30:44;;;;;;;;;;;24.60;71.20;;;;;;5021193;28;19922;-76
2023/05/26 10:33:11;;;;;;;;;;;24.50;69.80;;;;;;5031510;28;19962;-76
2023/05/26 10:35:37;;;;;;;;;;;24.50;69.70;;;;;;5031504;28;19999;-75
2023/05/26 10:38:02;;;;;;;;;;;24.40;68.00;;;;;;5026617;28;19952;-76
2023/05/26 10:40:28;;;;;;;;;;;24.30;68.60;;;;;;5029710;28;19912;-75
2023/05/26 10:43:20;;;;;;;;;;;24.30;69.30;;;;;;5031669;28;20010;-75
2023/05/26 10:45:50;;;;;;;;;;;24.30;68.60;;;;;;5028783;28;19974;-75
2023/05/26 10:48:16;;;;;;;;;;;24.30;69.70;;;;;;5029745;28;20381;-76
2023/05/26 10:50:58;;;;;;;;;;;24.30;68.80;;;;;;5031060;28;19969;-76
2023/05/26 10:53:25;;;;;;;;;;;24.20;69.00;;;;;;5031253;28;19909;-76
2023/05/26 10:55:56;;;;;;;;;;;24.20;68.10;;;;;;5026503;28;19955;-76
2023/05/26 10:58:28;;;;;;;;;;;24.10;68.70;;;;;;5032574;28;19951;-76
2023/05/26 11:01:00;;;;;;;;;;;24.00;69.60;;;;;;5028472;28;19913;-76
2023/05/26 11:03:43;;;;;;;;;;;24.00;69.90;;;;;;5030675;28;19955;-76
2023/05/26 11:06:10;;;;;;;;;;;23.80;69.10;;;;;;5024770;28;19996;-77
2023/05/26 11:08:37;;;;;;;;;;;23.70;70.10;;;;;;5030686;28;20027;-77
2023/05/26 11:11:03;;;;;;;;;;;23.60;71.20;;;;;;5030513;28;19923;-77
2023/05/26 11:13:40;;;;;;;;;;;23.50;71.40;;;;;;5027465;28;20016;-77
2023/05/26 11:16:24;;;;;;;;;;;23.40;70.90;;;;;;5030677;28;19911;-76
2023/05/26 11:18:51;;;;;;;;;;;23.30;69.10;;;;;;5030749;28;20428;-76
2023/05/26 11:21:17;;;;;;;;;;;23.30;70.00;;;;;;5028177;28;20477;-76
2023/05/26 11:23:43;;;;;;;;;;;23.40;71.20;;;;;;5030315;28;19992;-75
2023/05/26 11:26:10;;;;;;;;;;;23.20;71.20;;;;;;5030471;28;19913;-75
2023/05/26 11:28:39;;;;;;;;;;;23.00;71.30;;;;;;5030456;28;19905;-75
2023/05/26 11:31:09;;;;;;;;;;;23.00;71.10;;;;;;5030051;28;19913;-75
2023/05/26 11:33:34;;;;;;;;;;;22.90;71.30;;;;;;5029501;28;19905;-75
2023/05/26 11:36:10;;;;;;;;;;;22.90;71.00;;;;;;5030287;28;19935;-74
2023/05/26 11:38:39;;;;;;;;;;;23.00;72.30;;;;;;5023456;28;20500;-76
2023/05/26 11:41:08;;;;;;;;;;;23.20;71.40;;;;;;5029060;28;19905;-76
2023/05/26 11:43:34;;;;;;;;;;;23.40;70.40;;;;;;5030407;28;19916;-76
2023/05/26 11:46:02;;;;;;;;;;;23.70;69.80;;;;;;5030259;28;19905;-76
2023/05/26 11:48:35;;;;;;;;;;;24.00;68.20;;;;;;5029993;28;20046;-76
2023/05/26 11:51:04;;;;;;;;;;;24.30;68.60;;;;;;5030317;28;20493;-76
2023/05/26 11:53:30;;;;;;;;;;;24.70;67.60;;;;;;5029840;28;19924;-75
2023/05/26 11:56:05;;;;;;;;;;;25.30;65.40;;;;;;5027379;28;20019;-75
2023/05/26 11:58:31;;;;;;;;;;;25.60;65.50;;;;;;5022136;28;19959;-75
2023/05/26 12:00:57;;;;;;;;;;;26.00;64.50;;;;;;5029930;28;20372;-75
2023/05/26 12:03:23;;;;;;;;;;;26.30;64.80;;;;;;5030126;28;19924;-75
2023/05/26 12:05:49;;;;;;;;;;;26.50;64.80;;;;;;5025954;28;19909;-75
2023/05/26 12:08:15;;;;;;;;;;;26.90;64.70;;;;;;5030032;28;19913;-75
2023/05/26 12:10:40;;;;;;;;;;;27.50;63.20;;;;;;5028501;28;20291;-76
2023/05/26 12:13:06;;;;;;;;;;;28.00;62.10;;;;;;5030057;28;19913;-75
2023/05/26 12:15:32;;;;;;;;;;;28.40;61.50;;;;;;5030023;28;19905;-76
2023/05/26 12:18:00;;;;;;;;;;;28.80;59.60;;;;;;5029574;28;19919;-76
2023/05/26 12:20:26;;;;;;;;;;;29.00;59.10;;;;;;5029655;28;19913;-76
2023/05/26 12:22:52;;;;;;;;;;;29.00;58.90;;;;;;5029808;28;20000;-76
2023/05/26 12:25:23;;;;;;;;;;;28.90;59.10;;;;;;5027253;28;19916;-75
2023/05/26 12:27:49;;;;;;;;;;;28.90;59.10;;;;;;5030447;28;20406;-75
2023/05/26 12:30:18;;;;;;;;;;;28.70;58.80;;;;;;5033217;28;19941;-76
2023/05/26 12:32:45;;;;;;;;;;;28.10;60.20;;;;;;5032694;28;19991;-76
2023/05/26 12:35:11;;;;;;;;;;;27.80;60.90;;;;;;5032534;28;19909;-76
2023/05/26 12:37:37;;;;;;;;;;;27.50;61.10;;;;;;5030593;28;19933;-76
2023/05/26 12:40:03;;;;;;;;;;;26.90;61.70;;;;;;5035554;28;20489;-76
2023/05/26 12:42:28;;;;;;;;;;;26.60;62.70;;;;;;5036861;28;19909;-76
2023/05/26 12:44:54;;;;;;;;;;;26.20;62.70;;;;;;5033392;28;19955;-76
2023/05/26 12:47:19;;;;;;;;;;;26.00;63.30;;;;;;5033397;28;20003;-77
2023/05/26 12:49:45;;;;;;;;;;;25.80;63.90;;;;;;5033625;28;20054;-75
2023/05/26 12:52:10;;;;;;;;;;;25.90;64.50;;;;;;5034262;28;19945;-77
2023/05/26 12:54:36;;;;;;;;;;;25.90;65.00;;;;;;5032395;28;20540;-77
2023/05/26 12:57:04;;;;;;;;;;;26.10;65.10;;;;;;5040005;28;19976;-77
2023/05/26 12:59:31;;;;;;;;;;;26.50;63.80;;;;;;5036276;28;19969;-76
2023/05/26 13:01:56;;;;;;;;;;;26.90;63.00;;;;;;5034873;28;19909;-77
2023/05/26 13:04:22;;;;;;;;;;;27.40;61.80;;;;;;5031218;28;19927;-77
2023/05/26 13:06:49;;;;;;;;;;;28.00;60.20;;;;;;5028324;28;20280;-77
2023/05/26 13:09:15;;;;;;;;;;;28.60;60.30;;;;;;5029518;28;19960;-77
2023/05/26 13:11:41;;;;;;;;;;;29.00;59.10;;;;;;5034752;28;19917;-78
2023/05/26 13:14:06;;;;;;;;;;;29.30;58.20;;;;;;5029623;28;19905;-78
2023/05/26 13:16:32;;;;;;;;;;;29.70;58.70;;;;;;5032948;28;19913;-79
2023/05/26 13:18:58;;;;;;;;;;;30.50;56.70;;;;;;5032166;28;21180;-78
2023/05/26 13:21:23;;;;;;;;;;;31.00;56.10;;;;;;5029757;28;19909;-78
2023/05/26 13:23:51;;;;;;;;;;;31.40;56.20;;;;;;5030292;28;19966;-76
2023/05/26 13:26:16;;;;;;;;;;;31.90;55.80;;;;;;5031539;28;20291;-78
2023/05/26 13:28:42;;;;;;;;;;;32.00;54.50;;;;;;5029152;28;19919;-79
2023/05/26 13:31:08;;;;;;;;;;;31.30;55.40;;;;;;5030611;28;19913;-78
2023/05/26 13:33:33;;;;;;;;;;;30.60;56.40;;;;;;5031781;28;19978;-77
2023/05/26 13:35:59;;;;;;;;;;;29.90;57.60;;;;;;5033616;28;19920;-77
2023/05/26 13:38:24;;;;;;;;;;;29.30;59.10;;;;;;5030546;28;19913;-77
2023/05/26 13:40:50;;;;;;;;;;;28.50;60.30;;;;;;5022467;28;19909;-76
2023/05/26 13:43:15;;;;;;;;;;;28.30;61.40;;;;;;5030171;28;19963;-76
2023/05/26 13:45:41;;;;;;;;;;;28.10;62.20;;;;;;5030751;28;19920;-77
2023/05/26 13:48:07;;;;;;;;;;;27.80;62.60;;;;;;5032035;28;19905;-76
2023/05/26 13:50:33;;;;;;;;;;;27.50;63.30;;;;;;5030346;28;19940;-77
2023/05/26 13:52:58;;;;;;;;;;;27.10;64.00;;;;;;5030469;28;20374;-77
2023/05/26 13:55:24;;;;;;;;;;;26.80;64.50;;;;;;5028891;28;19917;-77
2023/05/26 13:57:49;;;;;;;;;;;26.40;65.10;;;;;;5026805;28;19912;-76
2023/05/26 14:00:15;;;;;;;;;;;26.30;65.60;;;;;;5030381;28;19909;-77
2023/05/26 14:02:40;;;;;;;;;;;26.10;66.00;;;;;;5026225;28;19936;-76
2023/05/26 14:05:06;;;;;;;;;;;25.60;67.00;;;;;;5026290;28;19913;-76
2023/05/26 14:07:32;;;;;;;;;;;25.50;67.60;;;;;;5029635;28;19959;-76
2023/05/26 14:09:57;;;;;;;;;;;25.40;67.60;;;;;;5026007;28;19917;-79
2023/05/26 14:12:23;;;;;;;;;;;25.40;68.60;;;;;;5030372;28;19960;-78